createdAt,value
2018-02-13T07:40:47.438Z,95711
2018-02-13T07:43:16.459Z,95711
2018-02-13T07:45:45.530Z,95702
2018-02-13T07:48:14.546Z,95689
2018-02-13T07:50:44.327Z,95688
2018-02-13T07:53:13.391Z,95681
2018-02-13T07:55:42.405Z,95683
2018-02-13T07:58:11.418Z,95678
2018-02-13T08:00:40.466Z,95675
2018-02-13T08:03:09.489Z,95668
2018-02-13T08:05:38.558Z,95672
2018-02-13T08:08:07.578Z,95658
2018-02-13T08:10:36.589Z,95658
2018-02-13T08:13:05.641Z,95648
2018-02-13T08:15:34.667Z,95647
2018-02-13T08:18:03.686Z,95641
2018-02-13T08:20:32.764Z,95637
2018-02-13T08:23:02.668Z,95632
2018-02-13T08:25:31.680Z,95634
2018-02-13T08:28:00.774Z,95619
2018-02-13T08:30:30.549Z,95629
2018-02-13T08:32:59.810Z,95622
2018-02-13T08:35:28.866Z,95622
2018-02-13T08:37:58.664Z,95615
2018-02-13T08:40:27.748Z,95612
2018-02-13T08:42:56.800Z,95603
2018-02-13T08:45:25.833Z,95604
2018-02-13T08:47:54.942Z,95607
2018-02-13T08:50:23.960Z,95603
2018-02-13T08:52:53.762Z,95600
2018-02-13T08:55:23.702Z,95591
2018-02-13T08:57:52.733Z,95583
2018-02-13T09:00:21.762Z,95588
2018-02-13T09:02:51.586Z,95584
2018-02-13T09:05:21.375Z,95586
2018-02-13T09:07:50.425Z,95585
2018-02-13T09:10:19.447Z,95580
2018-02-13T09:12:48.502Z,95579
2018-02-13T09:15:17.529Z,95583
2018-02-13T09:17:46.598Z,95577
2018-02-13T09:20:15.627Z,95573
2018-02-13T09:22:44.693Z,95578
2018-02-13T09:25:15.370Z,95572
2018-02-13T09:27:44.427Z,95571
2018-02-13T09:30:13.490Z,95562
2018-02-13T09:32:42.549Z,95558
2018-02-13T09:35:11.581Z,95567
2018-02-13T09:37:40.638Z,95570
2018-02-13T09:40:09.670Z,95564
2018-02-13T09:42:38.746Z,95559
2018-02-13T09:45:08.546Z,95555
2018-02-13T09:47:38.707Z,95550
2018-02-13T09:50:07.726Z,95550
2018-02-13T09:52:36.746Z,95551
2018-02-13T09:55:05.812Z,95545
2018-02-13T09:57:34.825Z,95542
2018-02-13T10:00:03.861Z,95549
2018-02-13T10:02:32.898Z,95539
2018-02-13T10:05:01.953Z,95539
2018-02-13T10:07:30.974Z,95534
2018-02-13T10:10:00.027Z,95536
2018-02-13T10:12:29.806Z,95539
2018-02-13T10:14:58.848Z,95536
2018-02-13T10:17:27.877Z,95534
2018-02-13T10:19:56.938Z,95531
2018-02-13T10:22:25.947Z,95536
2018-02-13T10:24:54.970Z,95540
2018-02-13T10:27:24.018Z,95535
2018-02-13T10:29:53.034Z,95532
2018-02-13T10:32:22.082Z,95527
2018-02-13T10:34:51.894Z,95531
2018-02-13T10:37:20.951Z,95528
2018-02-13T10:39:50.010Z,95534
2018-02-13T10:42:19.012Z,95526
2018-02-13T10:44:48.085Z,95518
2018-02-13T10:47:17.104Z,95530
2018-02-13T10:49:46.117Z,95525
2018-02-13T10:52:15.170Z,95515
2018-02-13T10:54:44.217Z,95514
2018-02-13T10:57:13.235Z,95508
2018-02-13T10:59:43.042Z,95497
2018-02-13T11:02:18.366Z,95501
2018-02-13T11:04:47.409Z,95505
2018-02-13T11:07:16.433Z,95503
2018-02-13T11:09:45.494Z,95497
2018-02-13T11:12:14.513Z,95491
2018-02-13T11:14:43.521Z,95488
2018-02-13T11:17:12.575Z,95482
2018-02-13T11:19:41.590Z,95475
2018-02-13T11:22:10.678Z,95478
2018-02-13T11:24:39.691Z,95460
2018-02-13T11:27:08.697Z,95461
2018-02-13T11:29:37.755Z,95449
2018-02-13T11:32:06.807Z,95452
2018-02-13T11:34:36.582Z,95463
2018-02-13T11:37:05.638Z,95448
2018-02-13T11:39:34.644Z,95449
2018-02-13T11:42:03.729Z,95450
2018-02-13T11:44:32.766Z,95446
2018-02-13T11:47:01.761Z,95458
2018-02-13T11:49:31.329Z,95434
2018-02-13T11:52:00.340Z,95437
2018-02-13T11:54:29.349Z,95423
2018-02-13T11:56:58.392Z,95426
2018-02-13T11:59:27.405Z,95421
2018-02-13T12:01:56.463Z,95404
2018-02-13T12:04:26.247Z,95399
2018-02-13T12:06:55.300Z,95390
2018-02-13T12:09:24.318Z,95396
2018-02-13T12:11:53.339Z,95383
2018-02-13T12:14:22.406Z,95380
2018-02-13T12:16:51.422Z,95381
2018-02-13T12:19:20.432Z,95383
2018-02-13T12:21:50.303Z,95375
2018-02-13T12:24:19.312Z,95372
2018-02-13T12:26:48.329Z,95363
2018-02-13T12:29:18.147Z,95359
2018-02-13T12:31:47.952Z,95313
2018-02-13T12:34:17.731Z,95363
2018-02-13T12:36:46.770Z,95354
2018-02-13T12:39:16.550Z,95351
2018-02-13T12:41:45.622Z,95344
2018-02-13T12:44:14.621Z,95343
2018-02-13T12:46:43.634Z,95341
2018-02-13T12:49:12.680Z,95348
2018-02-13T12:51:41.694Z,95342
2018-02-13T12:54:10.706Z,95335
2018-02-13T12:56:39.745Z,95338
2018-02-13T12:59:08.798Z,95332
2018-02-13T13:01:37.814Z,95332
2018-02-13T13:04:12.171Z,95334
2018-02-13T13:06:41.194Z,95333
2018-02-13T13:09:10.272Z,95330
2018-02-13T13:11:39.295Z,95318
2018-02-13T13:14:08.301Z,95328
2018-02-13T13:16:38.143Z,95324
2018-02-13T13:19:07.153Z,95321
2018-02-13T13:21:36.165Z,95327
2018-02-13T13:24:05.243Z,95323
2018-02-13T13:26:34.248Z,95332
2018-02-13T13:29:03.265Z,95331
2018-02-13T13:31:32.315Z,95325
2018-02-13T13:34:01.353Z,95325
2018-02-13T13:36:30.374Z,95309
2018-02-13T13:38:59.454Z,95321
2018-02-13T13:41:28.473Z,95302
2018-02-13T13:43:57.560Z,95301
2018-02-13T13:46:26.578Z,95299
2018-02-13T13:48:55.599Z,95292
2018-02-13T13:51:24.655Z,95293
2018-02-13T13:53:53.693Z,95285
2018-02-13T13:56:22.716Z,95278
2018-02-13T13:58:52.536Z,95264
2018-02-13T14:01:22.317Z,95262
2018-02-13T14:03:51.374Z,95260
2018-02-13T14:06:20.385Z,95254
2018-02-13T14:08:49.422Z,95248
2018-02-13T14:11:18.472Z,95239
2018-02-13T14:13:47.477Z,95235
2018-02-13T14:16:16.545Z,95232
2018-02-13T14:18:45.565Z,95234
2018-02-13T14:21:14.590Z,95234
2018-02-13T14:23:44.401Z,95226
2018-02-13T14:26:14.202Z,95230
2018-02-13T14:28:43.251Z,95225
2018-02-13T14:31:12.269Z,95219
2018-02-13T14:33:41.308Z,95225
2018-02-13T14:36:10.366Z,95225
2018-02-13T14:38:39.428Z,95219
2018-02-13T14:41:08.452Z,95218
2018-02-13T14:43:37.474Z,95224
2018-02-13T14:46:07.248Z,95211
2018-02-13T14:48:36.305Z,95214
2018-02-13T14:51:05.325Z,95211
2018-02-13T14:53:34.346Z,95209
2018-02-13T14:56:03.397Z,95209
2018-02-13T14:58:32.418Z,95215
2018-02-13T15:01:01.467Z,95214
2018-02-13T15:03:30.513Z,95219
2018-02-13T15:05:59.594Z,95206
2018-02-13T15:08:28.613Z,95215
2018-02-13T15:10:57.627Z,95212
2018-02-13T15:13:26.686Z,95219
2018-02-13T15:15:55.695Z,95229
2018-02-13T15:18:25.498Z,95224
2018-02-13T15:20:54.563Z,95218
2018-02-13T15:23:23.590Z,95223
2018-02-13T15:25:52.617Z,95221
2018-02-13T15:28:21.694Z,95220
2018-02-13T15:30:51.472Z,95222
2018-02-13T15:33:20.483Z,95227
2018-02-13T15:35:49.528Z,95225
2018-02-13T15:38:18.570Z,95226
2018-02-13T15:40:47.575Z,95234
2018-02-13T15:43:17.408Z,95131
2018-02-13T15:45:46.404Z,95222
2018-02-13T15:48:15.409Z,95223
2018-02-13T15:50:44.484Z,95225
2018-02-13T15:53:14.249Z,95226
2018-02-13T15:55:43.255Z,95225
2018-02-13T15:58:12.418Z,95230
2018-02-13T16:00:41.409Z,95221
2018-02-13T16:03:10.418Z,95223
2018-02-13T16:05:39.457Z,95226
2018-02-13T16:08:09.265Z,95219
2018-02-13T16:10:39.038Z,95236
2018-02-13T16:13:08.097Z,95226
2018-02-13T16:15:37.107Z,95220
2018-02-13T16:18:06.145Z,95228
2018-02-13T16:20:35.154Z,95222
2018-02-13T16:23:04.973Z,95218
2018-02-13T16:25:33.981Z,95206
2018-02-13T16:28:03.000Z,95214
2018-02-13T16:30:32.051Z,95219
2018-02-13T16:33:01.821Z,95210
2018-02-13T16:35:30.906Z,95195
2018-02-13T16:37:59.914Z,95206
2018-02-13T16:40:29.113Z,95209
2018-02-13T16:42:58.121Z,95217
2018-02-13T16:45:27.920Z,95211
2018-02-13T16:47:56.990Z,95219
2018-02-13T16:50:25.993Z,95219
2018-02-13T16:52:55.000Z,95221
2018-02-13T16:55:24.066Z,95208
2018-02-13T16:57:53.078Z,95223
2018-02-13T17:00:22.088Z,95220
2018-02-13T17:02:51.138Z,95218
2018-02-13T17:05:20.160Z,95212
2018-02-13T17:07:49.204Z,95204
2018-02-13T17:10:18.217Z,95208
2018-02-13T17:12:47.257Z,95209
2018-02-13T17:15:16.273Z,95212
2018-02-13T17:17:45.329Z,95213
2018-02-13T17:20:14.342Z,95206
2018-02-13T17:22:44.184Z,95216
2018-02-13T17:25:13.196Z,95216
2018-02-13T17:27:42.223Z,95227
2018-02-13T17:30:11.262Z,95216
2018-02-13T17:32:40.267Z,95234
2018-02-13T17:35:09.316Z,95222
2018-02-13T17:37:38.321Z,95228
2018-02-13T17:40:08.718Z,94529
2018-02-13T17:42:37.735Z,95223
2018-02-13T17:45:06.830Z,95221
2018-02-13T17:47:35.842Z,95220
2018-02-13T17:50:05.197Z,95218
2018-02-13T17:52:34.255Z,95215
2018-02-13T17:55:03.321Z,95213
2018-02-13T17:57:33.099Z,95215
2018-02-13T18:00:02.186Z,95226
2018-02-13T18:02:31.223Z,95219
2018-02-13T18:05:01.034Z,95221
2018-02-13T18:07:30.827Z,95226
2018-02-13T18:09:59.903Z,95225
2018-02-13T18:12:28.976Z,95236
2018-02-13T18:14:58.004Z,95238
2018-02-13T18:17:27.068Z,95248
2018-02-13T18:19:56.087Z,95247
2018-02-13T18:22:25.148Z,95244
2018-02-13T18:24:54.184Z,95245
2018-02-13T18:27:24.038Z,95339
2018-02-13T18:29:53.093Z,95248
2018-02-13T18:32:22.125Z,95248
2018-02-13T18:34:51.243Z,95255
2018-02-13T18:37:21.451Z,95250
2018-02-13T18:39:50.479Z,95250
2018-02-13T18:42:19.783Z,95244
2018-02-13T18:44:48.814Z,95240
